Jackson, Maine
Current Conditions -  °F | °C
As of 8:53 PM on Friday 28 Nov 2014 (Local Time) from KBGR Reporting Station
Clear Clear  
Wind Chill: 13°   Ceiling: Unl
Heat Index: 22°   Visibility: 10mi
Dew Point: 15°   Wind: 8mph
Humidity: 75%   Direction: 310°NW
Pressure: 30.09"   Gusts: NA
Location:  44.5719°N, 69.1432°W
Report Text: KBGR 290153Z 31007KT 10SM CLR M06/M09 A3009 RMK AO2 SLP193 T10561094
Loading
Personal Weather Stations






























Interactive Weather Map New forecast layout! Learn more

10-Day Weather Forecast

Advertisements
Track Severe Weather on mobile